sensor_id;sensor_type;location;lat;lon;timestamp;P1;durP1;ratioP1;P2;durP2;ratioP2
7247;SDS011;3665;51.034;13.642;2023-07-13T00:00:55;1.50;;;1.40;;
7247;SDS011;3665;51.034;13.642;2023-07-13T00:05:38;1.83;;;1.43;;
7247;SDS011;3665;51.034;13.642;2023-07-13T00:10:24;1.70;;;1.60;;
7247;SDS011;3665;51.034;13.642;2023-07-13T00:15:19;3.60;;;1.67;;
7247;SDS011;3665;51.034;13.642;2023-07-13T00:20:05;3.73;;;1.63;;
7247;SDS011;3665;51.034;13.642;2023-07-13T00:24:49;2.60;;;1.40;;
7247;SDS011;3665;51.034;13.642;2023-07-13T00:29:35;1.77;;;1.07;;
7247;SDS011;3665;51.034;13.642;2023-07-13T00:34:18;1.87;;;1.60;;
7247;SDS011;3665;51.034;13.642;2023-07-13T00:39:03;2.20;;;1.77;;
7247;SDS011;3665;51.034;13.642;2023-07-13T00:43:47;2.47;;;1.70;;
7247;SDS011;3665;51.034;13.642;2023-07-13T00:48:32;3.30;;;2.00;;
7247;SDS011;3665;51.034;13.642;2023-07-13T00:53:18;1.93;;;1.73;;
7247;SDS011;3665;51.034;13.642;2023-07-13T00:58:02;2.20;;;2.00;;
7247;SDS011;3665;51.034;13.642;2023-07-13T01:02:48;4.03;;;2.30;;
7247;SDS011;3665;51.034;13.642;2023-07-13T01:07:34;2.47;;;2.27;;
7247;SDS011;3665;51.034;13.642;2023-07-13T01:12:18;2.20;;;1.90;;
7247;SDS011;3665;51.034;13.642;2023-07-13T01:17:01;3.03;;;2.37;;
7247;SDS011;3665;51.034;13.642;2023-07-13T01:21:50;4.40;;;2.37;;
7247;SDS011;3665;51.034;13.642;2023-07-13T01:26:35;3.40;;;2.60;;
7247;SDS011;3665;51.034;13.642;2023-07-13T01:31:21;4.07;;;2.43;;
7247;SDS011;3665;51.034;13.642;2023-07-13T01:36:05;2.63;;;2.40;;
7247;SDS011;3665;51.034;13.642;2023-07-13T01:40:52;2.57;;;2.30;;
7247;SDS011;3665;51.034;13.642;2023-07-13T01:45:38;3.30;;;2.30;;
7247;SDS011;3665;51.034;13.642;2023-07-13T01:50:24;3.17;;;2.40;;
7247;SDS011;3665;51.034;13.642;2023-07-13T01:55:08;2.30;;;2.10;;
7247;SDS011;3665;51.034;13.642;2023-07-13T01:59:53;3.33;;;2.43;;
7247;SDS011;3665;51.034;13.642;2023-07-13T02:04:36;3.60;;;2.40;;
7247;SDS011;3665;51.034;13.642;2023-07-13T02:09:20;2.27;;;2.13;;
7247;SDS011;3665;51.034;13.642;2023-07-13T02:14:03;3.70;;;2.93;;
7247;SDS011;3665;51.034;13.642;2023-07-13T02:18:48;3.40;;;2.60;;
7247;SDS011;3665;51.034;13.642;2023-07-13T02:23:33;3.03;;;2.83;;
7247;SDS011;3665;51.034;13.642;2023-07-13T02:28:17;3.43;;;2.60;;
7247;SDS011;3665;51.034;13.642;2023-07-13T02:33:00;3.87;;;2.50;;
7247;SDS011;3665;51.034;13.642;2023-07-13T02:37:45;3.37;;;3.07;;
7247;SDS011;3665;51.034;13.642;2023-07-13T02:42:29;2.63;;;2.33;;
7247;SDS011;3665;51.034;13.642;2023-07-13T02:47:12;4.40;;;2.60;;
7247;SDS011;3665;51.034;13.642;2023-07-13T02:51:55;3.53;;;2.70;;
7247;SDS011;3665;51.034;13.642;2023-07-13T02:56:41;2.80;;;2.60;;
7247;SDS011;3665;51.034;13.642;2023-07-13T03:01:25;2.97;;;2.70;;
7247;SDS011;3665;51.034;13.642;2023-07-13T03:06:09;2.57;;;2.37;;
7247;SDS011;3665;51.034;13.642;2023-07-13T03:11:01;4.63;;;2.37;;
7247;SDS011;3665;51.034;13.642;2023-07-13T03:15:50;3.10;;;2.80;;
7247;SDS011;3665;51.034;13.642;2023-07-13T03:20:34;3.47;;;2.63;;
7247;SDS011;3665;51.034;13.642;2023-07-13T03:25:17;3.33;;;3.03;;
7247;SDS011;3665;51.034;13.642;2023-07-13T03:30:01;3.77;;;2.53;;
7247;SDS011;3665;51.034;13.642;2023-07-13T03:34:47;4.77;;;2.87;;
7247;SDS011;3665;51.034;13.642;2023-07-13T03:39:32;3.00;;;2.67;;
7247;SDS011;3665;51.034;13.642;2023-07-13T03:44:16;4.30;;;2.70;;
7247;SDS011;3665;51.034;13.642;2023-07-13T03:49:04;3.67;;;2.33;;
7247;SDS011;3665;51.034;13.642;2023-07-13T03:53:49;4.90;;;2.80;;
7247;SDS011;3665;51.034;13.642;2023-07-13T03:58:35;2.63;;;2.43;;
7247;SDS011;3665;51.034;13.642;2023-07-13T04:03:26;3.00;;;2.20;;
7247;SDS011;3665;51.034;13.642;2023-07-13T04:08:10;2.70;;;2.47;;
7247;SDS011;3665;51.034;13.642;2023-07-13T04:12:55;2.80;;;2.60;;
7247;SDS011;3665;51.034;13.642;2023-07-13T04:17:38;5.10;;;2.43;;
7247;SDS011;3665;51.034;13.642;2023-07-13T04:22:22;2.80;;;2.20;;
7247;SDS011;3665;51.034;13.642;2023-07-13T04:27:05;2.50;;;2.23;;
7247;SDS011;3665;51.034;13.642;2023-07-13T04:31:50;2.77;;;1.90;;
7247;SDS011;3665;51.034;13.642;2023-07-13T04:36:33;2.40;;;2.20;;
7247;SDS011;3665;51.034;13.642;2023-07-13T04:41:20;3.73;;;2.70;;
7247;SDS011;3665;51.034;13.642;2023-07-13T04:46:04;2.60;;;2.33;;
7247;SDS011;3665;51.034;13.642;2023-07-13T04:50:55;2.93;;;1.70;;
7247;SDS011;3665;51.034;13.642;2023-07-13T04:55:39;3.37;;;2.40;;
7247;SDS011;3665;51.034;13.642;2023-07-13T05:00:23;2.60;;;2.40;;
7247;SDS011;3665;51.034;13.642;2023-07-13T05:05:08;4.63;;;2.63;;
7247;SDS011;3665;51.034;13.642;2023-07-13T05:09:52;3.07;;;2.70;;
7247;SDS011;3665;51.034;13.642;2023-07-13T05:14:36;4.53;;;2.73;;
7247;SDS011;3665;51.034;13.642;2023-07-13T05:19:20;3.67;;;2.50;;
7247;SDS011;3665;51.034;13.642;2023-07-13T05:24:04;3.03;;;2.50;;
7247;SDS011;3665;51.034;13.642;2023-07-13T05:29:06;4.90;;;2.30;;
7247;SDS011;3665;51.034;13.642;2023-07-13T05:33:50;3.33;;;2.57;;
7247;SDS011;3665;51.034;13.642;2023-07-13T05:38:33;3.10;;;2.80;;
7247;SDS011;3665;51.034;13.642;2023-07-13T05:43:17;2.70;;;2.40;;
7247;SDS011;3665;51.034;13.642;2023-07-13T05:48:01;4.57;;;2.87;;
7247;SDS011;3665;51.034;13.642;2023-07-13T05:52:47;5.10;;;2.70;;
7247;SDS011;3665;51.034;13.642;2023-07-13T05:57:30;3.60;;;2.50;;
7247;SDS011;3665;51.034;13.642;2023-07-13T06:02:14;3.33;;;2.03;;
7247;SDS011;3665;51.034;13.642;2023-07-13T06:06:58;3.43;;;2.37;;
7247;SDS011;3665;51.034;13.642;2023-07-13T06:11:42;4.57;;;2.50;;
7247;SDS011;3665;51.034;13.642;2023-07-13T06:16:26;5.47;;;2.07;;
7247;SDS011;3665;51.034;13.642;2023-07-13T06:21:10;5.13;;;1.70;;
7247;SDS011;3665;51.034;13.642;2023-07-13T06:25:57;2.03;;;1.70;;
7247;SDS011;3665;51.034;13.642;2023-07-13T06:30:40;3.10;;;1.70;;
7247;SDS011;3665;51.034;13.642;2023-07-13T06:35:24;4.10;;;1.95;;
7247;SDS011;3665;51.034;13.642;2023-07-13T06:40:07;1.95;;;1.77;;
7247;SDS011;3665;51.034;13.642;2023-07-13T06:44:53;2.65;;;1.48;;
7247;SDS011;3665;51.034;13.642;2023-07-13T06:49:36;3.95;;;1.88;;
7247;SDS011;3665;51.034;13.642;2023-07-13T06:54:20;2.00;;;1.73;;
7247;SDS011;3665;51.034;13.642;2023-07-13T06:59:03;2.30;;;1.75;;
7247;SDS011;3665;51.034;13.642;2023-07-13T07:03:48;4.05;;;2.10;;
7247;SDS011;3665;51.034;13.642;2023-07-13T07:08:31;3.92;;;1.60;;
7247;SDS011;3665;51.034;13.642;2023-07-13T07:13:15;2.65;;;1.40;;
7247;SDS011;3665;51.034;13.642;2023-07-13T07:17:58;1.92;;;1.50;;
7247;SDS011;3665;51.034;13.642;2023-07-13T07:22:43;3.00;;;1.38;;
7247;SDS011;3665;51.034;13.642;2023-07-13T07:27:27;2.58;;;1.52;;
7247;SDS011;3665;51.034;13.642;2023-07-13T07:32:13;3.38;;;1.63;;
7247;SDS011;3665;51.034;13.642;2023-07-13T07:37:17;2.10;;;1.20;;
7247;SDS011;3665;51.034;13.642;2023-07-13T07:42:05;2.40;;;1.42;;
7247;SDS011;3665;51.034;13.642;2023-07-13T07:46:49;2.25;;;1.30;;
7247;SDS011;3665;51.034;13.642;2023-07-13T07:51:32;2.28;;;1.55;;
7247;SDS011;3665;51.034;13.642;2023-07-13T07:56:16;2.80;;;1.10;;
7247;SDS011;3665;51.034;13.642;2023-07-13T08:01:04;2.40;;;1.38;;
7247;SDS011;3665;51.034;13.642;2023-07-13T08:05:52;2.03;;;1.50;;
7247;SDS011;3665;51.034;13.642;2023-07-13T08:10:55;2.67;;;1.33;;
7247;SDS011;3665;51.034;13.642;2023-07-13T08:15:43;2.53;;;1.25;;
7247;SDS011;3665;51.034;13.642;2023-07-13T08:20:28;3.47;;;1.25;;
7247;SDS011;3665;51.034;13.642;2023-07-13T08:25:12;2.50;;;1.63;;
7247;SDS011;3665;51.034;13.642;2023-07-13T08:29:55;2.05;;;1.50;;
7247;SDS011;3665;51.034;13.642;2023-07-13T08:34:39;2.55;;;1.40;;
7247;SDS011;3665;51.034;13.642;2023-07-13T08:39:24;1.88;;;1.30;;
7247;SDS011;3665;51.034;13.642;2023-07-13T08:44:14;2.67;;;1.55;;
7247;SDS011;3665;51.034;13.642;2023-07-13T08:49:05;3.30;;;1.35;;
7247;SDS011;3665;51.034;13.642;2023-07-13T08:53:56;3.05;;;1.33;;
7247;SDS011;3665;51.034;13.642;2023-07-13T08:58:44;2.28;;;1.50;;
7247;SDS011;3665;51.034;13.642;2023-07-13T09:03:30;2.28;;;1.40;;
7247;SDS011;3665;51.034;13.642;2023-07-13T09:13:30;2.65;;;1.25;;
7247;SDS011;3665;51.034;13.642;2023-07-13T09:18:23;2.53;;;1.45;;
7247;SDS011;3665;51.034;13.642;2023-07-13T09:23:12;1.83;;;1.52;;
7247;SDS011;3665;51.034;13.642;2023-07-13T09:28:00;2.75;;;1.85;;
7247;SDS011;3665;51.034;13.642;2023-07-13T09:32:52;4.95;;;1.40;;
7247;SDS011;3665;51.034;13.642;2023-07-13T09:37:37;1.80;;;1.30;;
7247;SDS011;3665;51.034;13.642;2023-07-13T09:42:22;2.92;;;1.42;;
7247;SDS011;3665;51.034;13.642;2023-07-13T09:47:14;2.90;;;1.60;;
7247;SDS011;3665;51.034;13.642;2023-07-13T09:52:00;3.13;;;1.75;;
7247;SDS011;3665;51.034;13.642;2023-07-13T09:56:47;2.47;;;1.50;;
7247;SDS011;3665;51.034;13.642;2023-07-13T10:01:31;5.10;;;1.60;;
7247;SDS011;3665;51.034;13.642;2023-07-13T10:06:17;3.65;;;1.65;;
7247;SDS011;3665;51.034;13.642;2023-07-13T10:11:08;3.25;;;1.35;;
7247;SDS011;3665;51.034;13.642;2023-07-13T10:15:55;3.20;;;1.30;;
7247;SDS011;3665;51.034;13.642;2023-07-13T10:20:41;1.88;;;1.38;;
7247;SDS011;3665;51.034;13.642;2023-07-13T10:25:26;2.22;;;1.30;;
7247;SDS011;3665;51.034;13.642;2023-07-13T10:30:13;3.88;;;1.52;;
7247;SDS011;3665;51.034;13.642;2023-07-13T10:35:03;2.05;;;1.33;;
7247;SDS011;3665;51.034;13.642;2023-07-13T10:39:49;2.47;;;1.42;;
7247;SDS011;3665;51.034;13.642;2023-07-13T10:44:35;1.67;;;0.80;;
7247;SDS011;3665;51.034;13.642;2023-07-13T10:49:19;4.93;;;1.27;;
7247;SDS011;3665;51.034;13.642;2023-07-13T10:54:19;2.53;;;0.90;;
7247;SDS011;3665;51.034;13.642;2023-07-13T10:59:09;2.53;;;1.17;;
7247;SDS011;3665;51.034;13.642;2023-07-13T11:03:59;5.00;;;1.50;;
7247;SDS011;3665;51.034;13.642;2023-07-13T11:08:52;4.47;;;1.45;;
7247;SDS011;3665;51.034;13.642;2023-07-13T11:13:55;3.28;;;1.40;;
7247;SDS011;3665;51.034;13.642;2023-07-13T11:18:40;3.15;;;1.52;;
7247;SDS011;3665;51.034;13.642;2023-07-13T11:23:29;2.10;;;1.58;;
7247;SDS011;3665;51.034;13.642;2023-07-13T11:28:21;3.50;;;1.65;;
7247;SDS011;3665;51.034;13.642;2023-07-13T11:33:17;3.28;;;1.20;;
7247;SDS011;3665;51.034;13.642;2023-07-13T11:38:03;2.20;;;1.40;;
7247;SDS011;3665;51.034;13.642;2023-07-13T11:43:01;3.05;;;1.50;;
7247;SDS011;3665;51.034;13.642;2023-07-13T11:47:45;3.92;;;1.63;;
7247;SDS011;3665;51.034;13.642;2023-07-13T11:52:31;3.17;;;1.40;;
7247;SDS011;3665;51.034;13.642;2023-07-13T11:57:25;2.95;;;1.60;;
7247;SDS011;3665;51.034;13.642;2023-07-13T12:02:14;2.75;;;1.48;;
7247;SDS011;3665;51.034;13.642;2023-07-13T12:07:05;2.80;;;1.58;;
7247;SDS011;3665;51.034;13.642;2023-07-13T12:11:52;2.80;;;1.58;;
7247;SDS011;3665;51.034;13.642;2023-07-13T12:16:36;3.25;;;1.40;;
7247;SDS011;3665;51.034;13.642;2023-07-13T12:21:22;3.22;;;1.17;;
7247;SDS011;3665;51.034;13.642;2023-07-13T12:26:12;2.85;;;1.30;;
7247;SDS011;3665;51.034;13.642;2023-07-13T12:30:59;1.95;;;1.17;;
7247;SDS011;3665;51.034;13.642;2023-07-13T12:35:44;3.92;;;1.33;;
7247;SDS011;3665;51.034;13.642;2023-07-13T12:40:32;4.30;;;1.38;;
7247;SDS011;3665;51.034;13.642;2023-07-13T12:45:20;2.20;;;1.30;;
7247;SDS011;3665;51.034;13.642;2023-07-13T12:50:14;4.00;;;1.35;;
7247;SDS011;3665;51.034;13.642;2023-07-13T12:55:04;3.63;;;1.50;;
7247;SDS011;3665;51.034;13.642;2023-07-13T12:59:57;1.90;;;1.30;;
7247;SDS011;3665;51.034;13.642;2023-07-13T13:04:40;2.70;;;1.50;;
7247;SDS011;3665;51.034;13.642;2023-07-13T13:09:26;3.53;;;1.25;;
7247;SDS011;3665;51.034;13.642;2023-07-13T13:14:10;1.92;;;1.13;;
7247;SDS011;3665;51.034;13.642;2023-07-13T13:18:54;2.03;;;1.20;;
7247;SDS011;3665;51.034;13.642;2023-07-13T13:23:39;1.45;;;1.10;;
7247;SDS011;3665;51.034;13.642;2023-07-13T13:28:24;2.78;;;1.25;;
7247;SDS011;3665;51.034;13.642;2023-07-13T13:33:08;1.98;;;1.33;;
7247;SDS011;3665;51.034;13.642;2023-07-13T13:37:57;2.92;;;1.15;;
7247;SDS011;3665;51.034;13.642;2023-07-13T13:42:41;4.05;;;1.20;;
7247;SDS011;3665;51.034;13.642;2023-07-13T13:47:29;1.80;;;1.20;;
7247;SDS011;3665;51.034;13.642;2023-07-13T13:52:15;2.72;;;1.33;;
7247;SDS011;3665;51.034;13.642;2023-07-13T13:56:58;1.23;;;1.02;;
7247;SDS011;3665;51.034;13.642;2023-07-13T14:01:42;2.17;;;1.25;;
7247;SDS011;3665;51.034;13.642;2023-07-13T14:06:32;1.60;;;1.30;;
7247;SDS011;3665;51.034;13.642;2023-07-13T14:11:17;4.20;;;1.67;;
7247;SDS011;3665;51.034;13.642;2023-07-13T14:16:04;2.95;;;1.15;;
7247;SDS011;3665;51.034;13.642;2023-07-13T14:20:53;4.35;;;1.42;;
7247;SDS011;3665;51.034;13.642;2023-07-13T14:25:38;1.98;;;1.15;;
7247;SDS011;3665;51.034;13.642;2023-07-13T14:30:22;4.20;;;1.67;;
7247;SDS011;3665;51.034;13.642;2023-07-13T14:35:06;3.22;;;1.48;;
7247;SDS011;3665;51.034;13.642;2023-07-13T14:39:51;2.40;;;0.90;;
7247;SDS011;3665;51.034;13.642;2023-07-13T14:44:37;2.35;;;1.00;;
7247;SDS011;3665;51.034;13.642;2023-07-13T14:49:24;4.32;;;1.10;;
7247;SDS011;3665;51.034;13.642;2023-07-13T14:54:13;3.50;;;1.48;;
7247;SDS011;3665;51.034;13.642;2023-07-13T14:58:57;3.28;;;1.33;;
7247;SDS011;3665;51.034;13.642;2023-07-13T15:03:43;2.58;;;1.35;;
7247;SDS011;3665;51.034;13.642;2023-07-13T15:08:30;2.13;;;1.23;;
7247;SDS011;3665;51.034;13.642;2023-07-13T15:13:15;2.00;;;1.27;;
7247;SDS011;3665;51.034;13.642;2023-07-13T15:18:00;5.28;;;1.20;;
7247;SDS011;3665;51.034;13.642;2023-07-13T15:22:45;2.70;;;1.10;;
7247;SDS011;3665;51.034;13.642;2023-07-13T15:27:30;1.27;;;0.88;;
7247;SDS011;3665;51.034;13.642;2023-07-13T15:32:14;3.03;;;1.50;;
7247;SDS011;3665;51.034;13.642;2023-07-13T15:36:57;3.25;;;0.80;;
7247;SDS011;3665;51.034;13.642;2023-07-13T15:41:44;1.67;;;0.73;;
7247;SDS011;3665;51.034;13.642;2023-07-13T15:46:29;1.08;;;0.93;;
7247;SDS011;3665;51.034;13.642;2023-07-13T15:51:15;2.33;;;0.70;;
7247;SDS011;3665;51.034;13.642;2023-07-13T15:56:10;2.65;;;0.82;;
7247;SDS011;3665;51.034;13.642;2023-07-13T16:01:02;3.22;;;0.82;;
7247;SDS011;3665;51.034;13.642;2023-07-13T16:05:48;0.43;;;0.43;;
7247;SDS011;3665;51.034;13.642;2023-07-13T16:10:35;2.25;;;0.73;;
7247;SDS011;3665;51.034;13.642;2023-07-13T16:15:22;1.00;;;0.82;;
7247;SDS011;3665;51.034;13.642;2023-07-13T16:20:07;1.92;;;0.93;;
7247;SDS011;3665;51.034;13.642;2023-07-13T16:24:53;2.33;;;0.85;;
7247;SDS011;3665;51.034;13.642;2023-07-13T16:29:39;1.40;;;1.17;;
7247;SDS011;3665;51.034;13.642;2023-07-13T16:34:22;1.00;;;0.80;;
7247;SDS011;3665;51.034;13.642;2023-07-13T16:39:12;1.58;;;0.93;;
7247;SDS011;3665;51.034;13.642;2023-07-13T16:43:57;4.25;;;1.52;;
7247;SDS011;3665;51.034;13.642;2023-07-13T16:48:41;2.17;;;1.63;;
7247;SDS011;3665;51.034;13.642;2023-07-13T16:53:25;2.78;;;1.42;;
7247;SDS011;3665;51.034;13.642;2023-07-13T16:58:12;1.88;;;1.60;;
7247;SDS011;3665;51.034;13.642;2023-07-13T17:02:57;2.28;;;1.83;;
7247;SDS011;3665;51.034;13.642;2023-07-13T17:07:44;1.88;;;1.70;;
7247;SDS011;3665;51.034;13.642;2023-07-13T17:12:29;2.13;;;1.70;;
7247;SDS011;3665;51.034;13.642;2023-07-13T17:17:18;2.10;;;1.77;;
7247;SDS011;3665;51.034;13.642;2023-07-13T17:22:04;3.90;;;1.73;;
7247;SDS011;3665;51.034;13.642;2023-07-13T17:26:51;2.47;;;1.60;;
7247;SDS011;3665;51.034;13.642;2023-07-13T17:31:36;2.22;;;1.40;;
7247;SDS011;3665;51.034;13.642;2023-07-13T17:36:21;3.28;;;1.17;;
7247;SDS011;3665;51.034;13.642;2023-07-13T17:41:05;4.68;;;1.25;;
7247;SDS011;3665;51.034;13.642;2023-07-13T17:45:56;3.20;;;1.42;;
7247;SDS011;3665;51.034;13.642;2023-07-13T17:50:41;3.38;;;1.20;;
7247;SDS011;3665;51.034;13.642;2023-07-13T17:55:27;2.17;;;1.40;;
7247;SDS011;3665;51.034;13.642;2023-07-13T18:00:12;2.83;;;1.30;;
7247;SDS011;3665;51.034;13.642;2023-07-13T18:05:11;1.80;;;1.10;;
7247;SDS011;3665;51.034;13.642;2023-07-13T18:09:57;2.45;;;1.10;;
7247;SDS011;3665;51.034;13.642;2023-07-13T18:14:42;1.45;;;1.00;;
7247;SDS011;3665;51.034;13.642;2023-07-13T18:19:29;6.00;;;1.38;;
7247;SDS011;3665;51.034;13.642;2023-07-13T18:24:15;2.17;;;1.20;;
7247;SDS011;3665;51.034;13.642;2023-07-13T18:29:03;2.88;;;1.30;;
7247;SDS011;3665;51.034;13.642;2023-07-13T18:33:53;2.45;;;1.20;;
7247;SDS011;3665;51.034;13.642;2023-07-13T18:38:43;2.03;;;1.10;;
7247;SDS011;3665;51.034;13.642;2023-07-13T18:43:29;1.87;;;1.10;;
7247;SDS011;3665;51.034;13.642;2023-07-13T18:48:21;2.07;;;1.00;;
7247;SDS011;3665;51.034;13.642;2023-07-13T18:53:11;2.60;;;1.13;;
7247;SDS011;3665;51.034;13.642;2023-07-13T18:58:00;1.73;;;1.30;;
7247;SDS011;3665;51.034;13.642;2023-07-13T19:02:49;3.17;;;1.10;;
7247;SDS011;3665;51.034;13.642;2023-07-13T19:07:33;2.13;;;1.10;;
7247;SDS011;3665;51.034;13.642;2023-07-13T19:12:19;1.20;;;1.10;;
7247;SDS011;3665;51.034;13.642;2023-07-13T19:17:03;1.30;;;1.00;;
7247;SDS011;3665;51.034;13.642;2023-07-13T19:21:55;3.87;;;1.20;;
7247;SDS011;3665;51.034;13.642;2023-07-13T19:26:43;1.97;;;1.00;;
7247;SDS011;3665;51.034;13.642;2023-07-13T19:31:39;2.17;;;0.87;;
7247;SDS011;3665;51.034;13.642;2023-07-13T19:36:25;4.17;;;1.20;;
7247;SDS011;3665;51.034;13.642;2023-07-13T19:41:10;2.03;;;0.93;;
7247;SDS011;3665;51.034;13.642;2023-07-13T19:45:56;1.97;;;1.00;;
7247;SDS011;3665;51.034;13.642;2023-07-13T19:50:43;1.50;;;1.00;;
7247;SDS011;3665;51.034;13.642;2023-07-13T19:55:27;1.70;;;1.00;;
7247;SDS011;3665;51.034;13.642;2023-07-13T20:00:18;1.83;;;1.00;;
7247;SDS011;3665;51.034;13.642;2023-07-13T20:05:06;2.17;;;0.90;;
7247;SDS011;3665;51.034;13.642;2023-07-13T20:09:52;2.23;;;1.30;;
7247;SDS011;3665;51.034;13.642;2023-07-13T20:14:36;1.27;;;0.90;;
7247;SDS011;3665;51.034;13.642;2023-07-13T20:19:19;1.27;;;0.90;;
7247;SDS011;3665;51.034;13.642;2023-07-13T20:24:07;1.57;;;1.00;;
7247;SDS011;3665;51.034;13.642;2023-07-13T20:28:58;2.87;;;1.17;;
7247;SDS011;3665;51.034;13.642;2023-07-13T20:33:42;2.20;;;1.10;;
7247;SDS011;3665;51.034;13.642;2023-07-13T20:38:27;2.13;;;1.37;;
